Terminal Aerodrome Forecast
Issued by NWS

Home | Current Version | Previous Version | Graphics & Text | Print | Product List | Glossary On
Versions: 1 2 3 4 5 6 7 8 9 10 11 12 13 14 15 16 17 18 19 20 21 22 23 24 25 26
000
FTUS43 KGRB 192300 RRA
TAFMTW
TAF
KMTW 192342Z 2000/2024 25009KT P6SM SCT035 BKN070
     FM200500 29004KT 4SM BR SCT035 BKN070
      TEMPO 2006/2008 1 1/2SM BR SCT005
     FM200800 30004KT 3/4SM BR BKN004
     FM201400 30006KT 3SM BR BKN010
     FM201700 29006KT P6SM BKN020
     FM202000 14006KT 6SM HZ BKN020=

USA.gov is the U.S. government's official web portal to all federal, state and local government web resources and services.